Time;durP1;ratioP1;P1;durP2;ratioP2;P2;SDS_P1;SDS_P2;PMS_P1;PMS_P2;Temp;Humidity;BMP_temperature;BMP_pressure;BME280_temperature;BME280_humidity;BME280_pressure;Samples;Min_cycle;Max_cycle;Signal;HPM_P1;HPM_P2
2022/09/18 00:01:53;;;;;;;8.98;2.67;;;;;;;10.28;100.00;101607.88;5361951;27;20058;-80
2022/09/18 00:04:24;;;;;;;8.13;3.20;;;;;;;10.27;100.00;101607.00;5361636;27;21293;-80
2022/09/18 00:06:56;;;;;;;8.38;3.50;;;;;;;10.19;100.00;101604.94;5361367;27;20078;-80
2022/09/18 00:09:27;;;;;;;9.52;3.45;;;;;;;10.25;100.00;101608.09;5335504;27;20031;-79
2022/09/18 00:11:59;;;;;;;11.85;4.25;;;;;;;10.22;100.00;101603.88;5341877;27;23063;-78
2022/09/18 00:14:30;;;;;;;8.35;4.00;;;;;;;10.18;100.00;101603.25;5359777;27;20026;-79
2022/09/18 00:17:02;;;;;;;10.23;3.95;;;;;;;10.22;100.00;101603.88;5361276;27;20048;-80
2022/09/18 00:19:33;;;;;;;10.23;4.00;;;;;;;10.14;100.00;101591.13;5360148;27;20019;-79
2022/09/18 00:22:05;;;;;;;9.43;4.30;;;;;;;10.19;100.00;101606.78;5359912;27;20023;-78
2022/09/18 00:24:36;;;;;;;12.50;4.28;;;;;;;10.21;100.00;101603.00;5362178;27;20069;-79
2022/09/18 00:27:07;;;;;;;9.82;3.92;;;;;;;10.20;100.00;101601.34;5360508;27;20031;-79
2022/09/18 00:29:38;;;;;;;9.43;3.13;;;;;;;10.19;100.00;101588.97;5360344;27;20023;-79
2022/09/18 00:32:10;;;;;;;10.02;3.85;;;;;;;10.20;100.00;101597.78;5360193;27;20027;-79
2022/09/18 00:34:41;;;;;;;7.22;3.40;;;;;;;10.35;100.00;101598.44;5360871;27;20124;-79
2022/09/18 00:37:12;;;;;;;10.10;3.35;;;;;;;10.36;100.00;101581.44;5340959;27;20034;-80
2022/09/18 00:39:44;;;;;;;7.47;3.42;;;;;;;10.23;100.00;101587.72;5358792;27;20392;-79
2022/09/18 00:42:18;;;;;;;11.02;3.97;;;;;;;10.23;100.00;101590.41;5359938;27;20046;-80
2022/09/18 00:44:50;;;;;;;8.63;3.95;;;;;;;10.36;100.00;101597.44;5360923;27;20282;-80
2022/09/18 00:47:50;;;;;;;12.50;4.18;;;;;;;10.23;100.00;101600.22;5358354;27;20019;-79
2022/09/18 00:50:26;;;;;;;8.38;4.00;;;;;;;10.28;100.00;101587.38;5353076;27;20050;-79
2022/09/18 00:53:00;;;;;;;10.75;4.20;;;;;;;10.26;100.00;101597.31;5360565;27;20061;-79
2022/09/18 00:55:37;;;;;;;12.20;4.43;;;;;;;10.30;100.00;101595.25;5358803;27;20039;-80
2022/09/18 00:58:08;;;;;;;7.80;3.58;;;;;;;10.31;100.00;101602.28;5350098;27;20019;-79
2022/09/18 01:00:39;;;;;;;9.88;4.00;;;;;;;10.27;100.00;101593.66;5365883;27;20016;-80
2022/09/18 01:03:11;;;;;;;7.38;3.78;;;;;;;10.22;100.00;101593.22;5362041;27;20130;-80
2022/09/18 01:05:57;;;;;;;11.93;3.78;;;;;;;10.26;100.00;101599.16;5361932;27;20959;-79
2022/09/18 01:08:38;;;;;;;9.03;4.40;;;;;;;10.18;100.00;101602.41;5342692;27;20023;-79
2022/09/18 01:11:26;;;;;;;11.25;4.50;;;;;;;10.16;100.00;101596.34;5360619;27;20066;-80
2022/09/18 01:14:19;;;;;;;6.70;3.58;;;;;;;10.20;100.00;101604.00;5362417;27;20114;-79
2022/09/18 01:17:19;;;;;;;12.25;4.13;;;;;;;10.27;100.00;101608.81;5363009;27;20027;-80
2022/09/18 01:20:24;;;;;;;10.10;3.85;;;;;;;10.28;100.00;101607.88;5363102;27;20042;-79
2022/09/18 01:23:14;;;;;;;6.25;4.05;;;;;;;10.28;100.00;101607.88;5344310;27;20029;-80
2022/09/18 01:26:00;;;;;;;6.80;3.17;;;;;;;10.34;100.00;101608.28;5342529;27;30494;-80
2022/09/18 01:28:41;;;;;;;5.22;2.90;;;;;;;10.43;100.00;101608.47;5361792;27;20668;-79
2022/09/18 01:31:19;;;;;;;13.27;4.50;;;;;;;10.28;100.00;101608.72;5340842;27;20095;-80
2022/09/18 01:33:59;;;;;;;6.63;4.13;;;;;;;10.23;100.00;101601.06;5363792;27;20204;-79
2022/09/18 01:36:35;;;;;;;6.78;4.13;;;;;;;10.32;100.00;101599.50;5360152;27;20147;-79
2022/09/18 01:39:14;;;;;;;6.97;4.40;;;;;;;10.28;100.00;101598.03;5360981;27;20028;-80
2022/09/18 01:41:50;;;;;;;10.40;5.43;;;;;;;10.30;100.00;101603.25;5359559;27;20084;-80
2022/09/18 01:44:27;;;;;;;15.95;5.90;;;;;;;10.34;100.00;101599.41;5361883;27;20392;-79
2022/09/18 01:47:03;;;;;;;11.50;5.18;;;;;;;10.26;100.00;101589.31;5362667;27;20223;-79
2022/09/18 01:49:47;;;;;;;14.80;6.40;;;;;;;10.25;100.00;101592.94;5361283;27;20038;-79
2022/09/18 01:52:43;;;;;;;14.65;5.72;;;;;;;10.16;100.00;101596.34;5362636;27;20038;-80
2022/09/18 01:55:20;;;;;;;12.38;5.93;;;;;;;10.15;100.00;101591.97;5361978;27;20026;-80
2022/09/18 01:58:07;;;;;;;7.30;5.43;;;;;;;10.00;100.00;101581.56;5361175;27;20096;-79
2022/09/18 02:00:45;;;;;;;12.45;6.07;;;;;;;10.04;100.00;101584.81;5362563;27;20035;-79
2022/09/18 02:03:23;;;;;;;12.88;6.25;;;;;;;10.01;100.00;101580.59;5341237;27;20043;-79
2022/09/18 02:06:00;;;;;;;11.75;6.28;;;;;;;10.07;100.00;101571.25;5361286;27;20103;-80
2022/09/18 02:08:41;;;;;;;14.57;6.75;;;;;;;10.11;100.00;101578.03;5361946;27;20035;-79
2022/09/18 02:11:15;;;;;;;15.20;6.88;;;;;;;10.12;100.00;101577.09;5338862;27;20108;-79
2022/09/18 02:14:07;;;;;;;12.95;7.18;;;;;;;10.15;100.00;101586.66;5363155;27;20038;-79
2022/09/18 02:16:47;;;;;;;14.15;6.70;;;;;;;10.17;100.00;101587.41;5360586;27;20394;-79
2022/09/18 02:19:42;;;;;;;10.27;6.32;;;;;;;10.19;100.00;101578.28;5360840;27;20076;-79
2022/09/18 02:22:18;;;;;;;12.45;5.78;;;;;;;10.17;100.00;101571.41;5360130;27;20026;-79
2022/09/18 02:24:52;;;;;;;;;;;;;;;10.22;100.00;101566.56;5342748;27;20030;-79
2022/09/18 02:27:24;;;;;;;10.27;4.88;;;;;;;10.20;100.00;101564.00;5359817;27;19980;-79
2022/09/18 02:29:59;;;;;;;19.52;5.85;;;;;;;10.16;100.00;101567.03;5362241;27;20035;-80
2022/09/18 02:32:33;;;;;;;12.98;4.55;;;;;;;10.14;100.00;101559.16;5362586;27;20039;-80
2022/09/18 02:35:07;;;;;;;10.82;4.50;;;;;;;10.20;100.00;101555.13;5360852;27;20077;-79
2022/09/18 02:38:02;;;;;;;13.93;4.53;;;;;;;10.27;100.00;101564.34;5359731;27;20556;-79
2022/09/18 02:40:40;;;;;;;14.40;4.55;;;;;;;10.22;100.00;101556.72;5354731;27;20504;-79
2022/09/18 02:43:34;;;;;;;12.18;4.15;;;;;;;10.24;100.00;101559.28;5357726;27;20050;-79
2022/09/18 02:46:19;;;;;;;10.63;4.25;;;;;;;10.28;100.00;101558.03;5361158;27;20110;-78
2022/09/18 02:48:59;;;;;;;13.07;3.85;;;;;;;10.28;100.00;101565.22;5361649;27;20030;-79
2022/09/18 02:51:42;;;;;;;14.30;4.43;;;;;;;10.33;100.00;101568.38;5361682;27;20035;-80
2022/09/18 02:54:37;;;;;;;11.65;4.10;;;;;;;10.35;100.00;101561.94;5341118;27;20440;-80
2022/09/18 02:57:16;;;;;;;9.27;3.83;;;;;;;10.33;100.00;101555.88;5360054;27;20038;-79
2022/09/18 02:59:52;;;;;;;12.70;4.05;;;;;;;10.37;100.00;101551.16;5362755;27;20029;-80
2022/09/18 03:02:24;;;;;;;11.02;3.78;;;;;;;10.35;100.00;101547.78;5357741;27;20130;-79
2022/09/18 03:04:55;;;;;;;9.75;3.53;;;;;;;10.46;100.00;101561.06;5360348;27;20103;-80
2022/09/18 03:07:26;;;;;;;10.02;3.33;;;;;;;10.39;100.00;101559.88;5361044;27;20110;-79
2022/09/18 03:09:58;;;;;;;14.43;3.55;;;;;;;10.42;100.00;101553.47;5341135;27;20026;-80
2022/09/18 03:12:29;;;;;;;16.20;3.58;;;;;;;10.40;100.00;101550.91;5360149;27;20122;-80
2022/09/18 03:15:00;;;;;;;13.18;3.33;;;;;;;10.50;100.00;101540.34;5343454;27;20424;-80
2022/09/18 03:17:32;;;;;;;13.50;3.33;;;;;;;10.44;100.00;101551.50;5359921;27;20106;-79
2022/09/18 03:20:05;;;;;;;13.77;3.70;;;;;;;10.47;100.00;101546.78;5361497;27;20068;-80
2022/09/18 03:22:36;;;;;;;10.63;3.03;;;;;;;10.35;100.00;101537.94;5356380;27;20044;-80
2022/09/18 03:25:08;;;;;;;13.25;2.92;;;;;;;10.39;100.00;101546.53;5341368;27;20361;-80
2022/09/18 03:27:39;;;;;;;10.23;3.45;;;;;;;10.32;100.00;101551.50;5360048;27;20586;-80
2022/09/18 03:30:11;;;;;;;16.00;3.38;;;;;;;10.35;100.00;101550.44;5362146;27;20021;-80
2022/09/18 03:32:43;;;;;;;12.05;3.42;;;;;;;10.46;100.00;101552.22;5358183;27;20050;-80
2022/09/18 03:35:14;;;;;;;10.00;2.88;;;;;;;10.47;100.00;101548.59;5362395;27;20035;-80
2022/09/18 03:37:45;;;;;;;14.15;2.92;;;;;;;10.44;100.00;101536.34;5360110;27;20066;-80
2022/09/18 03:40:17;;;;;;;9.30;2.63;;;;;;;10.53;100.00;101532.09;5342187;27;20055;-80
2022/09/18 03:42:48;;;;;;;15.80;3.17;;;;;;;10.45;100.00;101540.72;5359033;27;20118;-80
2022/09/18 03:45:19;;;;;;;26.08;4.03;;;;;;;10.45;100.00;101547.84;5341927;27;20027;-80
2022/09/18 03:47:51;;;;;;;9.25;2.17;;;;;;;10.45;100.00;101534.53;5361233;27;20110;-80
2022/09/18 03:50:22;;;;;;;6.57;2.58;;;;;;;10.37;100.00;101532.50;5343048;27;20046;-80
2022/09/18 03:52:53;;;;;;;10.88;2.03;;;;;;;10.43;100.00;101536.47;5338225;27;20104;-80
2022/09/18 03:55:24;;;;;;;13.85;2.72;;;;;;;10.35;100.00;101524.59;5359209;27;39124;-79
2022/09/18 03:57:56;;;;;;;12.07;2.10;;;;;;;10.31;100.00;101530.28;5361732;27;20084;-79
2022/09/18 04:00:27;;;;;;;9.43;2.13;;;;;;;10.32;100.00;101524.84;5360640;27;20593;-79
2022/09/18 04:02:59;;;;;;;8.60;2.08;;;;;;;10.25;100.00;101520.97;5356978;27;20412;-79
2022/09/18 04:05:30;;;;;;;10.98;1.75;;;;;;;10.22;100.00;101522.06;5340357;27;20345;-79
2022/09/18 04:08:04;;;;;;;9.00;1.60;;;;;;;10.15;100.00;101514.66;5360453;27;20031;-79
2022/09/18 04:10:35;;;;;;;8.13;1.63;;;;;;;10.13;100.00;101514.81;5361185;27;20387;-79
2022/09/18 04:13:06;;;;;;;4.97;1.10;;;;;;;10.07;100.00;101515.28;5341560;27;20066;-79
2022/09/18 04:15:37;;;;;;;6.72;1.23;;;;;;;10.09;100.00;101510.69;5358196;27;20492;-79
2022/09/18 04:18:09;;;;;;;7.60;1.50;;;;;;;10.08;100.00;101513.47;5355963;27;20027;-79
2022/09/18 04:20:40;;;;;;;11.50;1.55;;;;;;;10.14;100.00;101523.66;5360489;27;20055;-79
2022/09/18 04:23:13;;;;;;;9.05;1.58;;;;;;;10.12;100.00;101517.59;5358521;27;20031;-79
2022/09/18 04:25:44;;;;;;;5.53;1.40;;;;;;;10.17;100.00;101520.75;5341249;27;20035;-79
2022/09/18 04:28:15;;;;;;;6.32;1.80;;;;;;;10.21;100.00;101524.84;5338947;27;20023;-78
2022/09/18 04:30:47;;;;;;;12.32;2.05;;;;;;;10.20;100.00;101516.00;5340536;27;20028;-78
2022/09/18 04:33:18;;;;;;;12.05;2.10;;;;;;;10.16;100.00;101519.03;5360539;27;20071;-78
2022/09/18 04:35:50;;;;;;;8.75;1.65;;;;;;;10.19;100.00;101526.81;5363863;27;20068;-78
2022/09/18 04:38:26;;;;;;;8.43;2.05;;;;;;;10.10;100.00;101522.19;5363616;27;20076;-78
2022/09/18 04:40:59;;;;;;;8.68;1.70;;;;;;;10.14;100.00;101532.50;5345476;27;20031;-78
2022/09/18 04:43:30;;;;;;;10.18;2.05;;;;;;;10.12;100.00;101531.75;5363324;27;20026;-78
2022/09/18 04:46:02;;;;;;;7.97;2.13;;;;;;;10.06;100.00;101532.25;5365112;27;20380;-78
2022/09/18 04:48:33;;;;;;;8.75;2.30;;;;;;;10.04;100.00;101526.19;5344358;27;20355;-78
2022/09/18 04:51:04;;;;;;;9.63;1.88;;;;;;;10.05;100.00;101525.22;5363753;27;20027;-78
2022/09/18 04:53:36;;;;;;;7.53;1.90;;;;;;;10.05;100.00;101533.22;5363565;27;20031;-79
2022/09/18 04:56:08;;;;;;;7.32;1.70;;;;;;;10.00;100.00;101530.91;5343956;27;20033;-79
2022/09/18 04:58:39;;;;;;;10.45;2.00;;;;;;;10.03;100.00;101530.69;5361517;27;20411;-78
2022/09/18 05:01:10;;;;;;;7.70;1.92;;;;;;;10.08;100.00;101534.78;5363449;27;20488;-78
2022/09/18 05:03:42;;;;;;;8.10;1.85;;;;;;;10.07;100.00;101535.78;5363753;27;20404;-78
2022/09/18 05:06:13;;;;;;;5.68;1.90;;;;;;;10.04;100.00;101526.19;5358849;27;30329;-79
2022/09/18 05:08:44;;;;;;;8.15;2.10;;;;;;;10.03;100.00;101509.34;5362793;27;20027;-79
2022/09/18 05:11:16;;;;;;;12.05;2.35;;;;;;;10.11;100.00;101513.22;5361535;27;20035;-79
2022/09/18 05:13:48;;;;;;;7.85;1.67;;;;;;;10.11;100.00;101502.56;5363825;27;20606;-79
2022/09/18 05:16:19;;;;;;;10.75;2.58;;;;;;;10.11;100.00;101503.41;5363118;27;20096;-78
2022/09/18 05:18:51;;;;;;;9.70;2.28;;;;;;;10.11;100.00;101510.56;5343397;27;20016;-78
2022/09/18 05:21:22;;;;;;;8.88;1.98;;;;;;;10.09;100.00;101516.00;5362954;27;20106;-79
2022/09/18 05:23:53;;;;;;;10.65;1.95;;;;;;;10.07;100.00;101530.44;5366913;27;20028;-78
2022/09/18 05:26:25;;;;;;;11.00;1.88;;;;;;;10.13;100.00;101533.47;5364705;27;20031;-78
2022/09/18 05:28:56;;;;;;;10.18;2.05;;;;;;;10.16;100.00;101524.38;5363430;27;20058;-79
2022/09/18 05:31:28;;;;;;;12.25;2.38;;;;;;;10.18;100.00;101527.75;5361954;27;20031;-78
2022/09/18 05:33:59;;;;;;;14.82;3.10;;;;;;;10.18;100.00;101533.09;5363036;27;20036;-79
2022/09/18 05:36:30;;;;;;;11.20;1.95;;;;;;;10.16;100.00;101546.53;5362835;27;20502;-78
2022/09/18 05:39:02;;;;;;;8.07;2.30;;;;;;;10.16;100.00;101546.53;5342200;27;20374;-78
2022/09/18 05:41:33;;;;;;;10.43;1.90;;;;;;;10.20;100.00;101544.47;5361691;27;20018;-79
2022/09/18 05:44:05;;;;;;;8.32;2.10;;;;;;;10.18;100.00;101541.94;5363392;27;20072;-79
2022/09/18 05:46:36;;;;;;;8.15;2.00;;;;;;;10.31;100.00;101525.84;5360763;27;20114;-79
2022/09/18 05:49:07;;;;;;;10.05;2.10;;;;;;;10.35;100.00;101529.09;5344633;27;20031;-79
2022/09/18 05:51:38;;;;;;;11.88;2.45;;;;;;;10.30;100.00;101513.44;5361042;27;39657;-79
2022/09/18 05:54:10;;;;;;;9.23;2.60;;;;;;;10.35;100.00;101526.44;5363609;27;20023;-79
2022/09/18 05:56:41;;;;;;;6.43;2.10;;;;;;;10.35;100.00;101535.28;5361754;27;20028;-79
2022/09/18 05:59:13;;;;;;;12.40;3.15;;;;;;;10.47;100.00;101536.09;5361388;27;20072;-79
2022/09/18 06:01:45;;;;;;;16.10;3.50;;;;;;;10.57;100.00;101536.19;5362248;27;20027;-80
2022/09/18 06:04:16;;;;;;;15.77;3.17;;;;;;;10.57;100.00;101531.72;5365661;27;20028;-79
2022/09/18 06:06:47;;;;;;;11.68;2.70;;;;;;;10.60;100.00;101530.59;5361190;27;20057;-79
2022/09/18 06:09:18;;;;;;;10.27;2.55;;;;;;;10.64;100.00;101521.41;5365555;27;20503;-79
2022/09/18 06:11:50;;;;;;;12.25;2.80;;;;;;;10.67;100.00;101523.78;5340367;27;20392;-79
2022/09/18 06:14:21;;;;;;;11.70;2.80;;;;;;;10.71;100.00;101519.06;5339335;27;20027;-79
2022/09/18 06:16:54;;;;;;;8.00;2.83;;;;;;;10.73;100.00;101517.13;5340261;27;20047;-79
2022/09/18 06:19:25;;;;;;;12.88;3.33;;;;;;;10.82;100.00;101519.03;5359349;27;20482;-79
2022/09/18 06:21:57;;;;;;;11.85;3.20;;;;;;;10.82;100.00;101520.81;5365868;27;20046;-79
2022/09/18 06:24:28;;;;;;;8.68;3.15;;;;;;;10.88;100.00;101523.00;5361977;27;20048;-79
2022/09/18 06:26:59;;;;;;;13.57;3.25;;;;;;;10.96;100.00;101524.06;5361764;27;20026;-79
2022/09/18 06:29:30;;;;;;;9.43;3.65;;;;;;;10.98;100.00;101514.09;5359311;27;20080;-79
2022/09/18 06:32:02;;;;;;;8.73;3.10;;;;;;;11.05;100.00;101521.59;5357601;27;20093;-79
2022/09/18 06:34:33;;;;;;;9.35;2.53;;;;;;;11.10;100.00;101519.38;5363247;27;20019;-79
2022/09/18 06:37:07;;;;;;;12.32;3.00;;;;;;;11.14;100.00;101518.16;5362851;27;20133;-79
2022/09/18 06:39:39;;;;;;;9.23;2.90;;;;;;;11.19;100.00;101507.94;5316121;27;20034;-79
2022/09/18 06:42:11;;;;;;;9.20;2.53;;;;;;;11.21;100.00;101503.28;5365783;27;20035;-79
2022/09/18 06:44:42;;;;;;;9.93;2.33;;;;;;;11.15;100.00;101498.50;5359075;27;20019;-79
2022/09/18 06:47:13;;;;;;;8.18;2.83;;;;;;;11.29;100.00;101513.31;5342588;27;20036;-78
2022/09/18 06:49:44;;;;;;;7.72;3.10;;;;;;;11.30;100.00;101507.00;5361612;27;20385;-79
2022/09/18 06:52:16;;;;;;;10.75;3.53;;;;;;;11.30;100.00;101515.00;5359410;27;20522;-79
2022/09/18 06:54:47;;;;;;;11.80;3.08;;;;;;;11.31;100.00;101514.88;5361639;27;20026;-79
2022/09/18 06:57:19;;;;;;;10.07;3.30;;;;;;;11.32;100.00;101505.88;5358372;27;20034;-79
2022/09/18 06:59:50;;;;;;;8.13;2.60;;;;;;;11.42;100.00;101516.63;5356291;27;20020;-79
2022/09/18 07:02:22;;;;;;;8.68;2.80;;;;;;;11.46;100.00;101503.88;5359248;27;20051;-78
2022/09/18 07:04:53;;;;;;;10.85;3.55;;;;;;;11.48;100.00;101507.25;5358427;27;20039;-79
2022/09/18 07:07:24;;;;;;;6.93;2.95;;;;;;;11.59;100.00;101519.66;5360943;27;20072;-79
2022/09/18 07:09:55;;;;;;;10.15;2.88;;;;;;;11.76;100.00;101518.22;5357872;27;20055;-79
2022/09/18 07:12:28;;;;;;;9.95;2.63;;;;;;;11.86;100.00;101511.94;5358489;27;20031;-79
2022/09/18 07:14:59;;;;;;;6.97;2.58;;;;;;;11.93;100.00;101512.28;5361193;27;20404;-79
2022/09/18 07:17:31;;;;;;;7.57;2.55;;;;;;;11.97;100.00;101513.69;5358418;27;20064;-79
2022/09/18 07:20:02;;;;;;;6.40;2.25;;;;;;;12.09;100.00;101509.94;5354971;27;20027;-79
2022/09/18 07:22:33;;;;;;;7.25;2.30;;;;;;;12.09;100.00;101509.94;5365817;27;20028;-79
2022/09/18 07:25:06;;;;;;;5.55;2.22;;;;;;;12.08;100.00;101508.25;5359793;27;20106;-79
2022/09/18 07:27:37;;;;;;;7.38;2.05;;;;;;;12.13;100.00;101496.28;5360079;27;20405;-79
2022/09/18 07:30:09;;;;;;;9.18;1.90;;;;;;;12.17;100.00;101495.06;5367839;27;20022;-79
2022/09/18 07:32:41;;;;;;;4.32;1.58;;;;;;;12.35;100.00;101497.91;5372206;27;20054;-78
2022/09/18 07:35:13;;;;;;;7.32;1.95;;;;;;;12.29;100.00;101493.97;5371918;27;20026;-79
2022/09/18 07:37:44;;;;;;;9.65;1.67;;;;;;;12.35;100.00;101497.91;5377823;27;20065;-79
2022/09/18 07:40:15;;;;;;;11.43;1.90;;;;;;;12.53;100.00;101490.88;5346249;27;20532;-79
2022/09/18 07:42:47;;;;;;;8.93;3.22;;;;;;;12.44;100.00;101500.56;5358725;27;20031;-79
2022/09/18 07:45:18;;;;;;;7.15;1.92;;;;;;;12.43;100.00;101504.25;5344260;27;20134;-79
2022/09/18 07:47:50;;;;;;;7.30;2.13;;;;;;;12.37;100.00;101495.94;5359727;27;20496;-80
2022/09/18 07:50:24;;;;;;;7.07;2.10;;;;;;;12.49;100.00;101500.16;5363921;27;20031;-79
2022/09/18 07:52:58;;;;;;;8.57;2.08;;;;;;;12.76;100.00;101498.63;5363270;27;20650;-79
2022/09/18 07:55:29;;;;;;;8.00;2.20;;;;;;;13.16;100.00;101492.28;5364602;27;20472;-77
2022/09/18 07:58:03;;;;;;;6.40;2.45;;;;;;;13.75;100.00;101493.00;5344053;27;20020;-78
2022/09/18 08:00:36;;;;;;;10.52;2.85;;;;;;;14.41;100.00;101499.13;5346649;27;20114;-79
2022/09/18 08:03:12;;;;;;;6.32;1.90;;;;;;;15.00;100.00;101483.44;5348456;27;20138;-80
2022/09/18 08:05:44;;;;;;;11.65;2.35;;;;;;;15.03;100.00;101486.63;5368475;27;20499;-79
2022/09/18 08:08:16;;;;;;;4.18;1.80;;;;;;;15.26;100.00;101478.06;5367267;27;20051;-80
2022/09/18 08:10:47;;;;;;;8.90;1.88;;;;;;;15.29;100.00;101467.84;5366567;27;20036;-79
2022/09/18 08:13:18;;;;;;;5.70;1.40;;;;;;;15.04;100.00;101480.28;5363944;27;20043;-79
2022/09/18 08:15:50;;;;;;;4.57;1.27;;;;;;;15.03;100.00;101453.56;5367868;27;20362;-79
2022/09/18 08:18:21;;;;;;;3.95;1.20;;;;;;;14.72;100.00;101468.25;5368106;27;20483;-80
2022/09/18 08:20:55;;;;;;;7.00;1.55;;;;;;;14.37;100.00;101475.28;5364358;27;20034;-80
2022/09/18 08:23:27;;;;;;;5.47;1.58;;;;;;;13.99;100.00;101474.53;5354726;27;20066;-79
2022/09/18 08:26:00;;;;;;;7.45;1.35;;;;;;;13.92;100.00;101464.53;5369677;27;20055;-79
2022/09/18 08:28:31;;;;;;;4.32;1.27;;;;;;;13.85;100.00;101471.47;5370883;27;20392;-79
2022/09/18 08:31:03;;;;;;;5.47;1.35;;;;;;;13.59;100.00;101483.72;5357811;27;20024;-80
2022/09/18 08:33:34;;;;;;;5.10;1.60;;;;;;;13.17;100.00;101473.38;5367045;27;20035;-79
2022/09/18 08:36:06;;;;;;;6.05;1.90;;;;;;;12.94;100.00;101494.28;5374209;27;20043;-80
2022/09/18 08:38:40;;;;;;;3.90;1.65;;;;;;;12.74;100.00;101488.06;5357362;27;20036;-80
2022/09/18 08:41:20;;;;;;;5.55;1.85;;;;;;;12.73;100.00;101493.56;5372735;27;20019;-80
2022/09/18 08:44:16;;;;;;;5.88;1.73;;;;;;;12.75;100.00;101502.31;5371569;27;20115;-79
2022/09/18 08:46:55;;;;;;;3.72;1.85;;;;;;;12.78;100.00;101499.34;5351390;27;20027;-80
2022/09/18 08:49:33;;;;;;;4.45;1.67;;;;;;;12.80;100.00;101482.16;5361452;27;20055;-79
2022/09/18 08:52:24;;;;;;;6.25;1.55;;;;;;;13.20;100.00;101507.06;5351366;27;20417;-80
2022/09/18 08:55:11;;;;;;;3.42;1.30;;;;;;;13.19;100.00;101498.19;5342530;27;20031;-78
2022/09/18 08:57:46;;;;;;;3.75;1.30;;;;;;;13.23;100.00;101496.91;5363785;27;20030;-80
2022/09/18 09:00:21;;;;;;;6.28;1.65;;;;;;;13.17;100.00;101497.50;5366383;27;20449;-79
2022/09/18 09:03:01;;;;;;;4.47;1.98;;;;;;;13.08;100.00;101505.53;5363836;27;20653;-79
2022/09/18 09:05:42;;;;;;;7.65;2.00;;;;;;;13.00;100.00;101500.88;5359714;27;20617;-80
2022/09/18 09:08:13;;;;;;;7.32;2.17;;;;;;;12.91;100.00;101499.06;5345194;27;20064;-80
2022/09/18 09:11:06;;;;;;;3.95;1.88;;;;;;;12.97;100.00;101501.16;5364058;27;20035;-80
2022/09/18 09:13:56;;;;;;;4.20;1.60;;;;;;;12.98;100.00;101508.22;5364848;27;20039;-79
2022/09/18 09:16:39;;;;;;;6.43;2.40;;;;;;;12.93;100.00;101494.41;5363385;27;20039;-81
2022/09/18 09:19:49;;;;;;;3.53;1.90;;;;;;;13.08;100.00;101500.16;5365294;27;20411;-80
2022/09/18 09:22:29;;;;;;;5.38;1.90;;;;;;;13.23;100.00;101482.66;5364636;27;20376;-79
2022/09/18 09:25:46;;;;;;;5.75;2.13;;;;;;;13.51;100.00;101501.53;5362613;27;20027;-80
2022/09/18 09:28:53;;;;;;;6.57;2.55;;;;;;;13.37;100.00;101506.34;5356796;27;20432;-80
2022/09/18 09:31:33;;;;;;;7.00;1.98;;;;;;;13.14;100.00;101503.13;5310022;27;20499;-79
2022/09/18 09:34:27;;;;;;;3.47;1.98;;;;;;;13.18;100.00;101493.84;5345025;27;20023;-79
2022/09/18 09:37:02;;;;;;;9.48;2.83;;;;;;;13.23;100.00;101504.09;5354162;27;20050;-79
2022/09/18 09:39:55;;;;;;;4.17;1.80;;;;;;;13.21;100.00;101512.28;5360468;27;20551;-80
2022/09/18 09:42:45;;;;;;;4.93;1.88;;;;;;;13.15;100.00;101520.06;5351166;27;20693;-79
2022/09/18 09:45:27;;;;;;;10.68;2.28;;;;;;;13.01;100.00;101507.94;5359281;27;20042;-80
2022/09/18 09:48:09;;;;;;;6.93;1.75;;;;;;;13.13;100.00;101512.16;5341261;27;20031;-80
2022/09/18 09:50:53;;;;;;;5.57;1.88;;;;;;;13.43;100.00;101508.47;5352228;27;20087;-81
2022/09/18 09:53:26;;;;;;;8.43;1.70;;;;;;;13.60;100.00;101508.69;5354420;27;20031;-79
2022/09/18 09:56:16;;;;;;;4.55;1.63;;;;;;;13.70;100.00;101496.09;5361412;27;20130;-80
2022/09/18 09:59:12;;;;;;;5.10;1.48;;;;;;;13.78;100.00;101492.72;5361577;27;20030;-80
2022/09/18 10:02:04;;;;;;;6.78;1.63;;;;;;;13.77;100.00;101474.91;5360723;27;20027;-80
2022/09/18 10:05:01;;;;;;;5.30;2.00;;;;;;;13.84;100.00;101462.59;5363125;27;20034;-79
2022/09/18 10:07:40;;;;;;;;;;;;;;;14.31;100.00;101470.50;5363453;27;20031;-78
2022/09/18 10:10:22;;;;;;;4.70;1.77;;;;;;;14.34;100.00;101464.84;5361160;27;19967;-79
2022/09/18 10:13:04;;;;;;;6.53;2.10;;;;;;;14.59;100.00;101461.59;5355720;27;20031;-79
2022/09/18 10:15:54;;;;;;;4.72;2.10;;;;;;;14.58;100.00;101468.78;5359684;27;20026;-79
2022/09/18 10:18:31;;;;;;;3.97;1.80;;;;;;;14.49;100.00;101458.94;5331415;27;20034;-79
2022/09/18 10:21:19;;;;;;;6.68;1.65;;;;;;;14.84;100.00;101468.03;5355991;27;20031;-79
2022/09/18 10:23:53;;;;;;;4.95;1.70;;;;;;;14.85;100.00;101461.63;5364751;27;20031;-79
2022/09/18 10:26:30;;;;;;;5.68;1.98;;;;;;;14.80;100.00;101462.13;5364651;27;20039;-79
2022/09/18 10:29:01;;;;;;;4.35;1.40;;;;;;;14.97;100.00;101471.16;5363822;27;20057;-79
2022/09/18 10:31:54;;;;;;;3.28;1.20;;;;;;;15.26;100.00;101468.16;5362442;27;20063;-79
2022/09/18 10:34:49;;;;;;;3.50;1.17;;;;;;;15.39;100.00;101461.53;5365344;27;20031;-79
2022/09/18 10:37:27;;;;;;;2.53;1.38;;;;;;;15.22;100.00;101463.28;5373486;27;20083;-80
2022/09/18 10:40:00;;;;;;;2.83;1.17;;;;;;;15.12;100.00;101456.13;5358845;27;20362;-79
2022/09/18 10:42:33;;;;;;;3.22;1.35;;;;;;;15.00;100.00;101452.03;5357891;27;20037;-80
2022/09/18 10:45:19;;;;;;;5.18;1.00;;;;;;;15.23;100.00;101451.50;5367212;27;21652;-79
2022/09/18 10:48:03;;;;;;;1.85;0.82;;;;;;;15.32;100.00;101445.19;5362272;27;20028;-79
2022/09/18 10:50:36;;;;;;;5.43;1.23;;;;;;;15.45;100.00;101452.84;5369271;27;20031;-79
2022/09/18 10:53:28;;;;;;;3.08;1.48;;;;;;;15.74;100.00;101438.16;5362721;27;20031;-80
2022/09/18 10:56:14;;;;;;;4.32;1.02;;;;;;;15.72;100.00;101435.63;5341773;27;20360;-80
2022/09/18 10:58:45;;;;;;;2.65;0.93;;;;;;;15.45;100.00;101424.09;5355093;27;20073;-80
2022/09/18 11:01:17;;;;;;;3.65;1.10;;;;;;;15.55;100.00;101428.50;5360989;27;20059;-80
2022/09/18 11:03:59;;;;;;;3.85;1.55;;;;;;;15.21;100.00;101435.53;5360601;27;20051;-81
2022/09/18 11:06:34;;;;;;;5.22;1.85;;;;;;;15.00;100.00;101429.69;5361013;27;20032;-79
2022/09/18 11:09:09;;;;;;;5.32;1.50;;;;;;;14.78;100.00;101425.66;5355846;27;20183;-79
2022/09/18 11:11:50;;;;;;;4.78;1.40;;;;;;;14.67;100.00;101443.72;5337111;27;20031;-80
2022/09/18 11:14:24;;;;;;;4.15;1.45;;;;;;;14.46;100.00;101443.16;5355528;27;20104;-81
2022/09/18 11:16:59;;;;;;;6.72;1.65;;;;;;;14.26;100.00;101458.56;5360921;27;20034;-81
2022/09/18 11:19:39;;;;;;;6.15;1.45;;;;;;;14.05;100.00;101459.66;5354366;27;20092;-81
2022/09/18 11:22:43;;;;;;;7.43;1.60;;;;;;;13.79;100.00;101483.66;5360006;27;20069;-81
2022/09/18 11:25:20;;;;;;;7.53;1.55;;;;;;;13.39;100.00;101464.22;5348905;27;20583;-82
2022/09/18 11:27:54;;;;;;;6.97;1.80;;;;;;;13.19;100.00;101468.72;5349034;27;20105;-82
2022/09/18 11:30:28;;;;;;;4.70;1.83;;;;;;;13.06;100.00;101476.22;5357589;27;20477;-80
2022/09/18 11:33:09;;;;;;;6.78;1.48;;;;;;;13.04;100.00;101480.84;5334932;27;20062;-79
2022/09/18 11:35:45;;;;;;;6.25;1.30;;;;;;;13.02;100.00;101483.69;5339967;27;25773;-80
2022/09/18 11:38:18;;;;;;;4.82;1.35;;;;;;;12.97;100.00;101495.81;5356478;27;20027;-80
2022/09/18 11:40:52;;;;;;;3.58;1.02;;;;;;;12.87;100.00;101487.81;5338171;27;20106;-79
2022/09/18 11:43:33;;;;;;;3.70;0.80;;;;;;;12.90;100.00;101498.19;5352575;27;20091;-79
2022/09/18 11:46:25;;;;;;;3.17;0.90;;;;;;;12.91;100.00;101496.41;5351347;27;20480;-80
2022/09/18 11:49:27;;;;;;;4.10;0.90;;;;;;;12.83;100.00;101497.94;5336173;27;20054;-80
2022/09/18 11:52:04;;;;;;;4.65;0.80;;;;;;;12.82;100.00;101493.56;5340487;27;20049;-80
2022/09/18 11:54:45;;;;;;;3.22;0.95;;;;;;;12.89;100.00;101487.66;5343993;27;20047;-81
2022/09/18 11:57:24;;;;;;;5.03;1.30;;;;;;;13.09;100.00;101499.19;5339257;27;20036;-82